createdAt,value
2019-05-26T00:00:16.492Z,89.2
2019-05-26T00:01:16.557Z,89.6
2019-05-26T00:02:16.824Z,89.3
2019-05-26T00:03:17.108Z,89.8
2019-05-26T00:04:16.377Z,89.7
2019-05-26T00:05:16.658Z,89.3
2019-05-26T00:06:16.929Z,89.5
2019-05-26T00:07:30.799Z,89.5
2019-05-26T00:08:16.318Z,89.5
2019-05-26T00:09:16.581Z,89.5
2019-05-26T00:10:16.910Z,89.5
2019-05-26T00:11:16.915Z,89.3
2019-05-26T00:12:17.182Z,89.0
2019-05-26T00:13:16.449Z,89.3
2019-05-26T00:14:16.724Z,89.3
2019-05-26T00:15:16.993Z,89.3
2019-05-26T00:16:16.332Z,89.4
2019-05-26T00:17:16.605Z,89.7
2019-05-26T00:18:16.866Z,89.8
2019-05-26T00:19:17.138Z,89.7
2019-05-26T00:20:16.404Z,89.8
2019-05-26T00:21:16.490Z,89.9
2019-05-26T00:22:16.764Z,90.2
2019-05-26T00:23:17.027Z,90.6
2019-05-26T00:24:16.308Z,90.8
2019-05-26T00:25:16.624Z,90.9
2019-05-26T00:26:16.897Z,91.0
2019-05-26T00:27:17.167Z,91.0
2019-05-26T00:28:16.444Z,91.4
2019-05-26T00:29:16.715Z,91.5
2019-05-26T00:30:16.997Z,91.7
2019-05-26T00:31:17.041Z,91.6
2019-05-26T00:32:16.307Z,91.8
2019-05-26T00:33:16.585Z,91.7
2019-05-26T00:34:16.848Z,91.8
2019-05-26T00:35:17.114Z,91.9
2019-05-26T00:36:16.379Z,92.0
2019-05-26T00:37:16.659Z,92.0
2019-05-26T00:38:16.938Z,92.1
2019-05-26T00:39:17.196Z,92.0
2019-05-26T00:40:16.488Z,92.2
2019-05-26T00:41:16.541Z,92.1
2019-05-26T00:42:16.816Z,92.2
2019-05-26T00:43:17.092Z,92.1
2019-05-26T00:44:16.363Z,92.2
2019-05-26T00:45:16.652Z,92.3
2019-05-26T00:46:16.929Z,92.3
2019-05-26T00:47:17.209Z,92.3
2019-05-26T00:48:16.481Z,92.5
2019-05-26T00:49:16.751Z,92.5
2019-05-26T00:50:17.021Z,92.7
2019-05-26T00:51:17.073Z,92.7
2019-05-26T00:52:16.345Z,92.8
2019-05-26T00:53:16.605Z,92.9
2019-05-26T00:54:16.868Z,93.1
2019-05-26T00:55:17.159Z,93.2
2019-05-26T00:56:16.431Z,93.3
2019-05-26T00:57:16.706Z,93.4
2019-05-26T00:58:16.995Z,93.3
2019-05-26T00:59:16.280Z,93.4
2019-05-26T01:00:16.578Z,93.7
2019-05-26T01:01:16.627Z,93.8
2019-05-26T01:02:17.038Z,94.0
2019-05-26T01:03:16.398Z,93.9
2019-05-26T01:04:16.674Z,93.9
2019-05-26T01:05:16.938Z,94.0
2019-05-26T01:06:17.208Z,94.2
2019-05-26T01:07:16.485Z,94.3
2019-05-26T01:08:16.754Z,94.5
2019-05-26T01:09:17.018Z,94.5
2019-05-26T01:10:16.295Z,94.5
2019-05-26T01:11:16.350Z,94.6
2019-05-26T01:12:16.645Z,94.5
2019-05-26T01:13:16.901Z,94.8
2019-05-26T01:14:17.168Z,94.9
2019-05-26T01:15:16.441Z,95.0
2019-05-26T01:16:16.708Z,94.6
2019-05-26T01:17:16.974Z,94.8
2019-05-26T01:18:17.241Z,95.0
2019-05-26T01:19:16.508Z,95.2
2019-05-26T01:20:16.780Z,95.2
2019-05-26T01:21:16.854Z,95.3
2019-05-26T01:22:17.122Z,95.2
2019-05-26T01:23:16.390Z,95.0
2019-05-26T01:24:16.662Z,95.2
2019-05-26T01:25:16.930Z,95.2
2019-05-26T01:26:17.206Z,95.2
2019-05-26T01:27:16.467Z,95.3
2019-05-26T01:28:16.737Z,95.3
2019-05-26T01:29:17.004Z,95.5
2019-05-26T01:30:16.286Z,95.5
2019-05-26T01:31:16.308Z,95.5
2019-05-26T01:32:16.593Z,95.6
2019-05-26T01:33:16.944Z,95.7
2019-05-26T01:34:17.204Z,95.7
2019-05-26T01:35:16.474Z,95.8
2019-05-26T01:36:16.736Z,96.0
2019-05-26T01:37:16.995Z,96.0
2019-05-26T01:38:24.691Z,95.8
2019-05-26T01:39:17.027Z,95.8
2019-05-26T01:40:16.307Z,95.9
2019-05-26T01:41:16.360Z,95.8
2019-05-26T01:42:16.637Z,95.9
2019-05-26T01:43:16.916Z,96.0
2019-05-26T01:44:17.241Z,96.0
2019-05-26T01:45:16.555Z,96.0
2019-05-26T01:46:16.855Z,96.2
2019-05-26T01:47:17.124Z,96.2
2019-05-26T01:48:16.419Z,96.1
2019-05-26T01:49:16.709Z,96.2
2019-05-26T01:50:16.977Z,96.2
2019-05-26T01:51:17.054Z,96.2
2019-05-26T01:52:16.319Z,96.0
2019-05-26T01:53:16.587Z,96.0
2019-05-26T01:54:16.852Z,95.8
2019-05-26T01:55:17.148Z,95.8
2019-05-26T01:56:16.425Z,95.9
2019-05-26T01:57:16.697Z,95.9
2019-05-26T01:58:16.961Z,96.0
2019-05-26T01:59:17.226Z,96.1
2019-05-26T02:00:16.511Z,96.2
2019-05-26T02:01:16.565Z,96.2
2019-05-26T02:02:16.823Z,96.3
2019-05-26T02:03:16.913Z,96.3
2019-05-26T02:04:17.172Z,96.2
2019-05-26T02:05:16.449Z,96.4
2019-05-26T02:06:16.717Z,96.3
2019-05-26T02:07:17.001Z,96.4
2019-05-26T02:08:16.269Z,96.5
2019-05-26T02:09:16.541Z,96.5
2019-05-26T02:10:16.824Z,96.5
2019-05-26T02:11:16.879Z,96.5
2019-05-26T02:12:17.142Z,96.5
2019-05-26T02:13:16.405Z,96.5
2019-05-26T02:14:16.685Z,96.4
2019-05-26T02:15:16.956Z,96.3
2019-05-26T02:16:17.232Z,96.3
2019-05-26T02:17:16.495Z,96.3
2019-05-26T02:18:16.765Z,96.5
2019-05-26T02:19:17.032Z,96.5
2019-05-26T02:20:16.299Z,96.5
2019-05-26T02:21:16.366Z,96.5
2019-05-26T02:22:16.635Z,96.5
2019-05-26T02:23:16.896Z,96.5
2019-05-26T02:24:17.163Z,96.5
2019-05-26T02:25:16.431Z,96.5
2019-05-26T02:26:16.702Z,96.5
2019-05-26T02:27:16.970Z,96.5
2019-05-26T02:28:17.260Z,96.7
2019-05-26T02:29:16.519Z,96.7
2019-05-26T02:30:16.844Z,96.6
2019-05-26T02:31:16.847Z,96.6
2019-05-26T02:32:17.159Z,96.7
2019-05-26T02:33:16.436Z,96.5
2019-05-26T02:34:16.722Z,96.6
2019-05-26T02:35:17.001Z,96.5
2019-05-26T02:36:16.288Z,96.5
2019-05-26T02:37:16.552Z,96.4
2019-05-26T02:38:16.831Z,96.4
2019-05-26T02:39:17.107Z,96.5
2019-05-26T02:40:16.431Z,96.5
2019-05-26T02:41:16.456Z,96.6
2019-05-26T02:42:16.721Z,96.7
2019-05-26T02:43:16.987Z,96.7
2019-05-26T02:44:17.254Z,96.6
2019-05-26T02:45:16.540Z,96.6
2019-05-26T02:46:16.817Z,96.5
2019-05-26T02:47:17.101Z,96.7
2019-05-26T02:48:16.390Z,96.7
2019-05-26T02:49:16.667Z,96.6
2019-05-26T02:50:16.960Z,96.6
2019-05-26T02:51:16.999Z,96.6
2019-05-26T02:52:16.281Z,96.5
2019-05-26T02:53:16.569Z,96.5
2019-05-26T02:54:16.870Z,96.5
2019-05-26T02:55:17.197Z,96.5
2019-05-26T02:56:16.477Z,96.5
2019-05-26T02:57:16.757Z,96.6
2019-05-26T02:58:17.053Z,96.8
2019-05-26T02:59:16.336Z,96.8
2019-05-26T03:00:16.632Z,96.8
2019-05-26T03:01:16.684Z,96.8
2019-05-26T03:02:16.948Z,96.8
2019-05-26T03:03:17.473Z,96.9
2019-05-26T03:04:16.747Z,96.8
2019-05-26T03:05:17.114Z,96.7
2019-05-26T03:06:16.412Z,96.7
2019-05-26T03:07:16.702Z,96.7
2019-05-26T03:08:17.224Z,96.7
2019-05-26T03:09:23.624Z,96.7
2019-05-26T03:10:17.131Z,96.6
2019-05-26T03:11:17.161Z,96.5
2019-05-26T03:12:16.430Z,96.6
2019-05-26T03:13:16.735Z,96.4
2019-05-26T03:14:17.010Z,96.3
2019-05-26T03:15:16.337Z,96.1
2019-05-26T03:16:16.609Z,96.1
2019-05-26T03:17:16.892Z,96.0
2019-05-26T03:18:17.196Z,96.0
2019-05-26T03:19:16.460Z,96.2
2019-05-26T03:20:16.751Z,96.3
2019-05-26T03:21:16.812Z,96.5
2019-05-26T03:22:17.083Z,96.5
2019-05-26T03:23:16.468Z,96.6
2019-05-26T03:24:16.762Z,96.6
2019-05-26T03:25:17.031Z,96.7
2019-05-26T03:26:16.307Z,96.7
2019-05-26T03:27:16.620Z,96.7
2019-05-26T03:28:16.947Z,96.5
2019-05-26T03:29:17.270Z,96.5
2019-05-26T03:30:16.576Z,96.5
2019-05-26T03:31:16.643Z,96.6
2019-05-26T03:32:17.034Z,96.7
2019-05-26T03:33:16.579Z,96.6
2019-05-26T03:34:17.037Z,96.7
2019-05-26T03:35:16.321Z,96.6
2019-05-26T03:36:16.637Z,96.6
2019-05-26T03:37:16.907Z,96.7
2019-05-26T03:38:17.206Z,96.6
2019-05-26T03:39:16.505Z,96.5
2019-05-26T03:40:16.783Z,96.5
2019-05-26T03:41:16.844Z,96.6
2019-05-26T03:42:17.118Z,96.7
2019-05-26T03:43:16.404Z,96.7
2019-05-26T03:44:16.687Z,96.8
2019-05-26T03:45:16.977Z,96.8
2019-05-26T03:46:17.515Z,96.7
2019-05-26T03:47:17.409Z,96.7
2019-05-26T03:48:16.682Z,96.6
2019-05-26T03:49:16.956Z,96.6
2019-05-26T03:50:17.250Z,96.6
2019-05-26T03:51:16.278Z,96.6
2019-05-26T03:52:16.553Z,96.7
2019-05-26T03:53:16.824Z,96.6
2019-05-26T03:54:17.140Z,96.6
2019-05-26T03:55:16.410Z,96.6
2019-05-26T03:56:16.689Z,96.5
2019-05-26T03:57:16.978Z,96.6
2019-05-26T03:58:17.278Z,96.3
2019-05-26T03:59:16.573Z,96.2
2019-05-26T04:00:16.859Z,96.2
2019-05-26T04:01:16.949Z,96.0
2019-05-26T04:02:17.224Z,96.0
2019-05-26T04:03:16.477Z,95.8
2019-05-26T04:04:16.749Z,95.8
2019-05-26T04:05:17.058Z,95.8
2019-05-26T04:06:16.338Z,95.8
2019-05-26T04:07:16.618Z,95.5
2019-05-26T04:08:16.900Z,95.5
2019-05-26T04:09:17.179Z,95.6
2019-05-26T04:10:16.486Z,95.4
2019-05-26T04:11:16.528Z,95.3
2019-05-26T04:12:16.803Z,95.3
2019-05-26T04:13:17.074Z,95.5
2019-05-26T04:14:16.365Z,95.6
2019-05-26T04:15:16.640Z,95.7
2019-05-26T04:16:16.919Z,95.6
2019-05-26T04:17:17.195Z,95.5
2019-05-26T04:18:16.458Z,95.5
2019-05-26T04:19:16.735Z,95.4
2019-05-26T04:20:17.106Z,95.2
2019-05-26T04:21:17.071Z,95.2
2019-05-26T04:22:16.429Z,95.2
2019-05-26T04:23:16.711Z,95.2
2019-05-26T04:24:16.983Z,95.2
2019-05-26T04:25:17.297Z,95.3
2019-05-26T04:26:16.565Z,95.3
2019-05-26T04:27:16.829Z,95.5
2019-05-26T04:28:17.104Z,95.5
2019-05-26T04:29:16.391Z,95.8
2019-05-26T04:30:16.671Z,95.8
2019-05-26T04:31:16.738Z,95.7
2019-05-26T04:32:17.023Z,95.5
2019-05-26T04:33:16.285Z,95.6
2019-05-26T04:34:16.603Z,95.5
2019-05-26T04:35:16.885Z,95.3
2019-05-26T04:36:17.178Z,95.4
2019-05-26T04:37:16.482Z,95.5
2019-05-26T04:38:16.759Z,95.4
2019-05-26T04:39:17.036Z,95.4
2019-05-26T04:40:27.936Z,95.4
2019-05-26T04:41:16.391Z,95.4
2019-05-26T04:42:16.666Z,95.6
2019-05-26T04:43:16.940Z,95.5
2019-05-26T04:44:17.217Z,95.5
2019-05-26T04:45:16.510Z,95.3
2019-05-26T04:46:16.792Z,95.3
2019-05-26T04:47:17.067Z,95.2
2019-05-26T04:48:16.339Z,95.0
2019-05-26T04:49:16.632Z,94.7
2019-05-26T04:50:16.929Z,94.6
2019-05-26T04:51:16.944Z,94.5
2019-05-26T04:52:17.281Z,94.5
2019-05-26T04:53:16.559Z,94.4
2019-05-26T04:54:16.826Z,94.2
2019-05-26T04:55:17.096Z,94.0
2019-05-26T04:56:16.391Z,94.0
2019-05-26T04:57:16.658Z,94.0
2019-05-26T04:58:16.929Z,93.8
2019-05-26T04:59:17.245Z,93.8
2019-05-26T05:00:16.524Z,93.7
2019-05-26T05:01:16.596Z,93.7
2019-05-26T05:02:16.879Z,93.3
2019-05-26T05:03:17.140Z,92.8
2019-05-26T05:04:16.406Z,92.9
2019-05-26T05:05:16.682Z,93.3
2019-05-26T05:06:16.972Z,93.5
2019-05-26T05:07:17.239Z,93.2
2019-05-26T05:08:16.506Z,92.9
2019-05-26T05:09:16.793Z,92.7
2019-05-26T05:10:17.072Z,92.7
2019-05-26T05:11:17.106Z,92.8
2019-05-26T05:12:16.391Z,93.0
2019-05-26T05:13:16.678Z,93.3
2019-05-26T05:14:16.947Z,93.2
2019-05-26T05:15:17.219Z,93.5
2019-05-26T05:16:16.484Z,93.2
2019-05-26T05:17:16.765Z,93.3
2019-05-26T05:18:17.050Z,93.5
2019-05-26T05:19:16.314Z,93.0
2019-05-26T05:20:16.599Z,92.7
2019-05-26T05:21:16.661Z,92.2
2019-05-26T05:22:17.021Z,92.0
2019-05-26T05:23:16.331Z,91.9
2019-05-26T05:24:16.594Z,92.0
2019-05-26T05:25:16.883Z,92.3
2019-05-26T05:26:17.154Z,92.0
2019-05-26T05:27:16.425Z,91.8
2019-05-26T05:28:16.698Z,91.9
2019-05-26T05:29:16.969Z,91.8
2019-05-26T05:30:17.244Z,91.9
2019-05-26T05:31:16.313Z,91.6
2019-05-26T05:32:16.573Z,91.4
2019-05-26T05:33:16.859Z,91.2
2019-05-26T05:34:17.147Z,90.8
2019-05-26T05:35:16.427Z,90.2
2019-05-26T05:36:16.691Z,90.0
2019-05-26T05:37:17.072Z,89.8
2019-05-26T05:38:16.371Z,89.8
2019-05-26T05:39:16.651Z,90.0
2019-05-26T05:40:16.949Z,88.9
2019-05-26T05:41:16.979Z,89.3
2019-05-26T05:42:17.260Z,89.2
2019-05-26T05:43:16.522Z,89.2
2019-05-26T05:44:16.804Z,88.7
2019-05-26T05:45:17.125Z,88.0
2019-05-26T05:46:16.414Z,88.1
2019-05-26T05:47:16.678Z,88.3
2019-05-26T05:48:16.937Z,88.0
2019-05-26T05:49:17.208Z,88.0
2019-05-26T05:50:16.506Z,88.1
2019-05-26T05:51:16.596Z,88.3
2019-05-26T05:52:16.879Z,88.0
2019-05-26T05:53:17.168Z,86.8
2019-05-26T05:54:16.436Z,86.5
2019-05-26T05:55:16.710Z,85.7
2019-05-26T05:56:16.968Z,85.5
2019-05-26T05:57:17.234Z,86.0
2019-05-26T05:58:16.497Z,87.0
2019-05-26T05:59:16.768Z,87.2
2019-05-26T06:00:17.064Z,86.4
2019-05-26T06:01:17.088Z,85.8
2019-05-26T06:02:16.400Z,85.7
2019-05-26T06:03:19.001Z,85.7
2019-05-26T06:04:16.293Z,85.2
2019-05-26T06:05:16.556Z,85.1
2019-05-26T06:06:16.819Z,84.4
2019-05-26T06:07:17.076Z,84.2
2019-05-26T06:08:16.346Z,84.0
2019-05-26T06:09:16.616Z,83.9
2019-05-26T06:10:16.892Z,83.2
2019-05-26T06:11:17.530Z,83.1
2019-05-26T06:12:16.811Z,82.9
2019-05-26T06:13:17.085Z,82.8
2019-05-26T06:14:16.360Z,83.3
2019-05-26T06:15:17.846Z,83.9
2019-05-26T06:16:17.154Z,83.8
2019-05-26T06:17:16.432Z,82.7
2019-05-26T06:18:16.699Z,83.1
2019-05-26T06:19:16.971Z,81.2
2019-05-26T06:20:17.410Z,81.0
2019-05-26T06:21:16.299Z,80.2
2019-05-26T06:22:16.601Z,79.5
2019-05-26T06:23:16.869Z,79.0
2019-05-26T06:24:17.139Z,78.8
2019-05-26T06:25:16.430Z,78.7
2019-05-26T06:26:16.720Z,77.5
2019-05-26T06:27:16.984Z,77.3
2019-05-26T06:28:17.257Z,77.8
2019-05-26T06:29:16.526Z,77.9
2019-05-26T06:30:16.805Z,78.8
2019-05-26T06:31:16.834Z,79.1
2019-05-26T06:32:17.338Z,76.7
2019-05-26T06:33:16.696Z,77.8
2019-05-26T06:34:16.963Z,78.5
2019-05-26T06:35:17.235Z,75.9
2019-05-26T06:36:16.512Z,74.0
2019-05-26T06:37:16.788Z,74.5
2019-05-26T06:38:17.053Z,76.2
2019-05-26T06:39:16.331Z,76.6
2019-05-26T06:40:16.618Z,76.2
2019-05-26T06:41:33.246Z,73.0
2019-05-26T06:42:16.849Z,73.2
2019-05-26T06:43:17.116Z,72.5
2019-05-26T06:44:16.715Z,72.5
2019-05-26T06:45:16.979Z,74.0
2019-05-26T06:46:17.240Z,74.8
2019-05-26T06:47:16.513Z,74.1
2019-05-26T06:48:16.781Z,75.2
2019-05-26T06:49:17.045Z,73.3
2019-05-26T06:50:16.550Z,74.2
2019-05-26T06:51:16.390Z,75.0
2019-05-26T06:52:16.651Z,75.3
2019-05-26T06:53:16.917Z,75.8
2019-05-26T06:54:17.183Z,74.5
2019-05-26T06:55:16.448Z,73.9
2019-05-26T06:56:16.714Z,74.5
2019-05-26T06:57:16.978Z,73.2
2019-05-26T06:58:17.249Z,73.1
2019-05-26T06:59:16.526Z,73.4
2019-05-26T07:00:16.819Z,73.6
2019-05-26T07:01:16.932Z,73.0
2019-05-26T07:02:17.195Z,72.8
2019-05-26T07:03:16.471Z,69.8
2019-05-26T07:04:16.753Z,70.4
2019-05-26T07:05:18.804Z,69.0
2019-05-26T07:06:17.099Z,69.3
2019-05-26T07:07:16.377Z,70.9
2019-05-26T07:08:16.646Z,71.1
2019-05-26T07:09:16.907Z,71.5
2019-05-26T07:10:17.200Z,71.9
2019-05-26T07:11:17.250Z,72.5
2019-05-26T07:12:16.535Z,73.2
2019-05-26T07:13:16.797Z,72.3
2019-05-26T07:14:17.065Z,72.6
2019-05-26T07:15:16.358Z,72.8
2019-05-26T07:16:16.627Z,72.2
2019-05-26T07:17:20.784Z,73.0
2019-05-26T07:18:17.107Z,73.1
2019-05-26T07:19:16.369Z,70.5
2019-05-26T07:20:16.649Z,68.8
2019-05-26T07:21:16.709Z,70.3
2019-05-26T07:22:16.971Z,69.8
2019-05-26T07:23:17.250Z,70.6
2019-05-26T07:24:16.525Z,70.9
2019-05-26T07:25:16.818Z,72.0
2019-05-26T07:26:17.094Z,71.9
2019-05-26T07:27:16.350Z,71.7
2019-05-26T07:28:16.622Z,71.4
2019-05-26T07:29:16.885Z,72.0
2019-05-26T07:30:17.183Z,72.1
2019-05-26T07:31:17.491Z,72.2
2019-05-26T07:32:16.794Z,72.4
2019-05-26T07:33:17.055Z,71.2
2019-05-26T07:34:16.328Z,69.8
2019-05-26T07:35:16.631Z,70.0
2019-05-26T07:36:16.948Z,70.0
2019-05-26T07:37:17.227Z,70.2
2019-05-26T07:38:16.490Z,71.2
2019-05-26T07:39:16.773Z,71.3
2019-05-26T07:40:17.036Z,71.2
2019-05-26T07:41:17.100Z,71.2
2019-05-26T07:42:16.376Z,71.0
2019-05-26T07:43:16.642Z,70.5
2019-05-26T07:44:16.913Z,69.5
2019-05-26T07:45:17.197Z,67.8
2019-05-26T07:46:16.460Z,67.3
2019-05-26T07:47:16.724Z,66.3
2019-05-26T07:48:16.986Z,66.5
2019-05-26T07:49:17.253Z,66.7
2019-05-26T07:50:16.548Z,65.8
2019-05-26T07:51:16.592Z,66.2
2019-05-26T07:52:16.918Z,66.2
2019-05-26T07:53:17.194Z,66.2
2019-05-26T07:54:26.099Z,65.5
2019-05-26T07:55:16.437Z,67.3
2019-05-26T07:56:16.702Z,67.1
2019-05-26T07:57:16.967Z,67.5
2019-05-26T07:58:17.247Z,66.8
2019-05-26T07:59:16.517Z,66.8
2019-05-26T08:00:16.798Z,65.2
2019-05-26T08:01:16.859Z,65.7
2019-05-26T08:02:17.125Z,66.7
2019-05-26T08:03:16.394Z,68.4
2019-05-26T08:04:16.652Z,67.8
2019-05-26T08:05:16.929Z,67.1
2019-05-26T08:06:17.373Z,65.5
2019-05-26T08:07:16.724Z,64.2
2019-05-26T08:08:16.993Z,64.4
2019-05-26T08:09:16.262Z,65.0
2019-05-26T08:10:16.545Z,65.5
2019-05-26T08:11:16.595Z,66.5
2019-05-26T08:12:28.310Z,67.5
2019-05-26T08:13:16.507Z,66.3
2019-05-26T08:14:16.780Z,66.0
2019-05-26T08:15:17.046Z,66.4
2019-05-26T08:16:16.310Z,66.6
2019-05-26T08:17:16.575Z,66.7
2019-05-26T08:18:16.850Z,66.0
2019-05-26T08:19:17.125Z,65.0
2019-05-26T08:20:16.409Z,65.5
2019-05-26T08:21:16.484Z,65.2
2019-05-26T08:22:16.761Z,65.1
2019-05-26T08:23:17.033Z,65.9
2019-05-26T08:24:16.309Z,66.1
2019-05-26T08:25:16.583Z,67.2
2019-05-26T08:26:16.859Z,66.2
2019-05-26T08:27:17.123Z,65.7
2019-05-26T08:28:16.401Z,64.7
2019-05-26T08:29:16.672Z,65.4
2019-05-26T08:30:16.943Z,65.8
2019-05-26T08:31:17.012Z,65.5
2019-05-26T08:32:16.283Z,65.1
2019-05-26T08:33:16.559Z,64.8
2019-05-26T08:34:16.826Z,63.8
2019-05-26T08:35:17.137Z,64.4
2019-05-26T08:36:16.418Z,63.4
2019-05-26T08:37:16.677Z,64.3
2019-05-26T08:38:16.935Z,65.3
2019-05-26T08:39:17.205Z,64.8
2019-05-26T08:40:16.496Z,65.1
2019-05-26T08:41:16.547Z,66.3
2019-05-26T08:42:36.307Z,66.6
2019-05-26T08:43:16.570Z,67.0
2019-05-26T08:44:16.836Z,65.9
2019-05-26T08:45:22.407Z,67.2
2019-05-26T08:46:16.907Z,66.8
2019-05-26T08:47:17.241Z,66.0
2019-05-26T08:48:16.507Z,65.9
2019-05-26T08:49:16.770Z,64.0
2019-05-26T08:50:17.042Z,63.5
2019-05-26T08:51:17.099Z,64.2
2019-05-26T08:52:16.370Z,63.9
2019-05-26T08:53:16.642Z,62.6
2019-05-26T08:54:16.912Z,63.4
2019-05-26T08:55:17.188Z,64.8
2019-05-26T08:56:16.461Z,65.2
2019-05-26T08:57:16.747Z,65.9
2019-05-26T08:58:17.082Z,66.3
2019-05-26T08:59:16.372Z,67.5
2019-05-26T09:00:16.645Z,66.8
2019-05-26T09:01:16.725Z,66.5
2019-05-26T09:02:16.986Z,66.6
2019-05-26T09:03:17.255Z,63.5
2019-05-26T09:04:16.547Z,62.1
2019-05-26T09:05:16.835Z,62.6
2019-05-26T09:06:17.089Z,61.2
2019-05-26T09:07:16.358Z,63.0
2019-05-26T09:08:16.620Z,60.0
2019-05-26T09:09:16.890Z,61.0
2019-05-26T09:10:17.160Z,60.7
2019-05-26T09:11:17.217Z,60.4
2019-05-26T09:12:16.478Z,59.8
2019-05-26T09:13:16.747Z,60.2
2019-05-26T09:14:17.008Z,61.7
2019-05-26T09:15:16.288Z,62.3
2019-05-26T09:16:16.643Z,62.3
2019-05-26T09:17:16.906Z,61.7
2019-05-26T09:18:17.213Z,60.6
2019-05-26T09:19:16.497Z,62.0
2019-05-26T09:20:16.773Z,64.4
2019-05-26T09:21:16.809Z,61.9
2019-05-26T09:22:17.084Z,61.4
2019-05-26T09:23:16.341Z,63.0
2019-05-26T09:24:16.637Z,62.6
2019-05-26T09:25:16.907Z,62.8
2019-05-26T09:26:17.174Z,60.9
2019-05-26T09:27:16.432Z,60.0
2019-05-26T09:28:16.700Z,59.6
2019-05-26T09:29:16.979Z,59.5
2019-05-26T09:30:17.256Z,58.1
2019-05-26T09:31:16.332Z,58.0
2019-05-26T09:32:16.605Z,57.5
2019-05-26T09:33:16.869Z,59.1
2019-05-26T09:34:17.134Z,59.4
2019-05-26T09:35:16.402Z,59.3
2019-05-26T09:36:16.713Z,61.3
2019-05-26T09:37:16.997Z,61.9
2019-05-26T09:38:16.257Z,62.2
2019-05-26T09:39:16.526Z,62.4
2019-05-26T09:40:16.819Z,60.2
2019-05-26T09:41:16.860Z,58.9
2019-05-26T09:42:17.139Z,59.1
2019-05-26T09:43:16.969Z,56.9
2019-05-26T09:44:17.241Z,55.2
2019-05-26T09:45:16.518Z,57.0
2019-05-26T09:46:16.787Z,56.5
2019-05-26T09:47:17.057Z,56.1
2019-05-26T09:48:16.328Z,54.3
2019-05-26T09:49:16.607Z,55.9
2019-05-26T09:50:16.894Z,57.0
2019-05-26T09:51:16.957Z,57.2
2019-05-26T09:52:17.215Z,57.7
2019-05-26T09:53:16.484Z,57.5
2019-05-26T09:54:16.748Z,58.1
2019-05-26T09:55:17.008Z,58.0
2019-05-26T09:56:16.284Z,55.4
2019-05-26T09:57:16.554Z,55.4
2019-05-26T09:58:16.831Z,55.7
2019-05-26T09:59:17.096Z,54.2
2019-05-26T10:00:16.608Z,55.0
2019-05-26T10:01:16.448Z,52.6
2019-05-26T10:02:16.714Z,54.4
2019-05-26T10:03:16.977Z,54.5
2019-05-26T10:04:17.241Z,54.0
2019-05-26T10:05:16.527Z,55.5
2019-05-26T10:06:16.795Z,52.0
2019-05-26T10:07:17.121Z,52.0
2019-05-26T10:08:16.393Z,51.8
2019-05-26T10:09:16.661Z,53.0
2019-05-26T10:10:16.958Z,53.7
2019-05-26T10:11:16.998Z,53.6
2019-05-26T10:12:16.289Z,53.5
2019-05-26T10:13:31.568Z,52.4
2019-05-26T10:14:17.138Z,52.2
2019-05-26T10:15:16.425Z,51.8
2019-05-26T10:16:16.699Z,53.7
2019-05-26T10:17:16.972Z,52.7
2019-05-26T10:18:17.267Z,51.6
2019-05-26T10:19:16.552Z,50.9
2019-05-26T10:20:16.841Z,49.2
2019-05-26T10:21:16.881Z,50.0
2019-05-26T10:22:17.149Z,50.0
2019-05-26T10:23:16.421Z,52.0
2019-05-26T10:24:16.688Z,50.1
2019-05-26T10:25:16.987Z,50.5
2019-05-26T10:26:16.272Z,50.2
2019-05-26T10:27:16.611Z,51.5
2019-05-26T10:28:16.884Z,51.8
2019-05-26T10:29:17.148Z,50.4
2019-05-26T10:30:16.440Z,50.6
2019-05-26T10:31:16.489Z,49.4
2019-05-26T10:32:16.765Z,50.9
2019-05-26T10:33:17.034Z,52.5
2019-05-26T10:34:16.301Z,50.2
2019-05-26T10:35:16.579Z,50.0
2019-05-26T10:36:16.844Z,50.8
2019-05-26T10:37:17.110Z,52.0
2019-05-26T10:38:16.386Z,52.8
2019-05-26T10:39:16.652Z,53.2
2019-05-26T10:40:16.936Z,54.1
2019-05-26T10:41:16.987Z,52.0
2019-05-26T10:42:17.247Z,51.8
2019-05-26T10:43:16.520Z,52.4
2019-05-26T10:44:16.792Z,51.4
2019-05-26T10:45:17.081Z,50.8
2019-05-26T10:46:16.414Z,52.3
2019-05-26T10:47:16.689Z,50.9
2019-05-26T10:48:16.958Z,50.0
2019-05-26T10:49:17.226Z,49.8
2019-05-26T10:50:16.534Z,50.0
2019-05-26T10:51:16.562Z,49.5
2019-05-26T10:52:16.835Z,49.6
2019-05-26T10:53:17.097Z,49.8
2019-05-26T10:54:16.384Z,50.0
2019-05-26T10:55:16.664Z,50.9
2019-05-26T10:56:17.057Z,50.8
2019-05-26T10:57:16.330Z,49.8
2019-05-26T10:58:16.590Z,49.4
2019-05-26T10:59:16.853Z,49.6
2019-05-26T11:00:17.126Z,49.4
2019-05-26T11:01:17.179Z,52.1
2019-05-26T11:02:16.457Z,49.9
2019-05-26T11:03:16.721Z,49.4
2019-05-26T11:04:16.993Z,50.0
2019-05-26T11:05:16.252Z,49.5
2019-05-26T11:06:16.510Z,49.0
2019-05-26T11:07:16.773Z,49.8
2019-05-26T11:08:17.038Z,50.5
2019-05-26T11:09:16.300Z,50.4
2019-05-26T11:10:16.565Z,50.0
2019-05-26T11:11:16.619Z,49.4
2019-05-26T11:12:16.884Z,50.5
2019-05-26T11:13:17.158Z,49.5
2019-05-26T11:14:16.436Z,50.1
2019-05-26T11:15:16.728Z,50.0
2019-05-26T11:16:16.992Z,48.8
2019-05-26T11:17:17.260Z,50.3
2019-05-26T11:18:16.523Z,51.5
2019-05-26T11:19:16.808Z,50.5
2019-05-26T11:20:17.086Z,49.9
2019-05-26T11:21:17.135Z,50.7
2019-05-26T11:22:16.408Z,51.2
2019-05-26T11:23:16.683Z,51.7
2019-05-26T11:24:16.974Z,53.0
2019-05-26T11:25:17.243Z,52.1
2019-05-26T11:26:16.514Z,53.0
2019-05-26T11:27:16.853Z,52.0
2019-05-26T11:28:17.139Z,51.4
2019-05-26T11:29:16.413Z,51.5
2019-05-26T11:30:16.689Z,52.3
2019-05-26T11:31:16.741Z,52.5
2019-05-26T11:32:17.005Z,52.8
2019-05-26T11:33:16.272Z,52.5
2019-05-26T11:34:16.545Z,52.8
2019-05-26T11:35:16.825Z,53.1
2019-05-26T11:36:17.086Z,53.0
2019-05-26T11:37:16.355Z,52.9
2019-05-26T11:38:16.623Z,52.6
2019-05-26T11:39:16.883Z,53.0
2019-05-26T11:40:17.152Z,52.8
2019-05-26T11:41:17.240Z,52.2
2019-05-26T11:42:16.507Z,53.8
2019-05-26T11:43:17.713Z,53.0
2019-05-26T11:44:18.546Z,53.3
2019-05-26T11:45:16.853Z,52.8
2019-05-26T11:46:17.716Z,52.4
2019-05-26T11:47:17.064Z,52.5
2019-05-26T11:48:16.319Z,53.0
2019-05-26T11:49:16.595Z,53.5
2019-05-26T11:50:16.882Z,52.8
2019-05-26T11:51:16.934Z,53.1
2019-05-26T11:52:20.485Z,53.3
2019-05-26T11:53:16.763Z,53.2
2019-05-26T11:54:17.040Z,53.0
2019-05-26T11:55:16.322Z,52.7
2019-05-26T11:56:16.584Z,53.1
2019-05-26T11:57:16.854Z,53.2
2019-05-26T11:58:17.146Z,53.3
2019-05-26T11:59:17.097Z,53.8
2019-05-26T12:00:16.998Z,53.6
2019-05-26T12:01:16.436Z,52.4
2019-05-26T12:02:16.715Z,53.3
2019-05-26T12:03:16.977Z,53.2
2019-05-26T12:04:17.281Z,53.7
2019-05-26T12:05:18.133Z,53.6
2019-05-26T12:06:16.449Z,54.3
2019-05-26T12:07:16.713Z,53.5
2019-05-26T12:08:17.040Z,53.1
2019-05-26T12:09:16.315Z,53.7
2019-05-26T12:10:16.619Z,54.3
2019-05-26T12:11:16.647Z,54.0
2019-05-26T12:12:16.925Z,54.8
2019-05-26T12:13:17.375Z,55.4
2019-05-26T12:14:16.643Z,55.5
2019-05-26T12:15:16.927Z,56.0
2019-05-26T12:16:17.194Z,55.4
2019-05-26T12:17:16.458Z,55.0
2019-05-26T12:18:16.728Z,55.0
2019-05-26T12:19:16.991Z,55.4
2019-05-26T12:20:16.258Z,55.3
2019-05-26T12:21:16.349Z,54.9
2019-05-26T12:22:16.620Z,54.5
2019-05-26T12:23:16.893Z,54.5
2019-05-26T12:24:17.189Z,54.4
2019-05-26T12:25:16.471Z,55.0
2019-05-26T12:26:16.746Z,55.8
2019-05-26T12:27:17.021Z,53.8
2019-05-26T12:28:16.294Z,53.5
2019-05-26T12:29:16.569Z,54.8
2019-05-26T12:30:16.859Z,55.8
2019-05-26T12:31:16.891Z,55.1
2019-05-26T12:32:17.157Z,55.5
2019-05-26T12:33:16.531Z,54.2
2019-05-26T12:34:16.841Z,54.1
2019-05-26T12:35:17.111Z,54.7
2019-05-26T12:36:16.387Z,54.0
2019-05-26T12:37:16.649Z,54.0
2019-05-26T12:38:16.919Z,53.9
2019-05-26T12:39:17.196Z,53.8
2019-05-26T12:40:16.492Z,54.5
2019-05-26T12:41:16.534Z,54.6
2019-05-26T12:42:17.408Z,53.8
2019-05-26T12:43:16.689Z,54.6
2019-05-26T12:44:16.969Z,53.1
2019-05-26T12:45:16.328Z,54.1
2019-05-26T12:46:16.592Z,54.1
2019-05-26T12:47:16.858Z,55.1
2019-05-26T12:48:17.133Z,54.5
2019-05-26T12:49:16.399Z,54.4
2019-05-26T12:50:16.672Z,54.1
2019-05-26T12:51:16.714Z,55.0
2019-05-26T12:52:16.988Z,55.0
2019-05-26T12:53:16.258Z,53.9
2019-05-26T12:54:16.522Z,53.5
2019-05-26T12:55:16.795Z,53.2
2019-05-26T12:56:17.072Z,53.1
2019-05-26T12:57:16.365Z,52.5
2019-05-26T12:58:16.700Z,52.2
2019-05-26T12:59:16.973Z,52.3
2019-05-26T13:00:17.263Z,52.7
2019-05-26T13:01:16.349Z,52.1
2019-05-26T13:02:16.616Z,52.0
2019-05-26T13:03:16.868Z,52.8
2019-05-26T13:04:17.146Z,52.0
2019-05-26T13:05:16.421Z,52.1
2019-05-26T13:06:17.861Z,52.9
2019-05-26T13:07:17.124Z,52.5
2019-05-26T13:08:16.392Z,52.7
2019-05-26T13:09:16.674Z,52.8
2019-05-26T13:10:16.963Z,53.1
2019-05-26T13:11:17.012Z,53.8
2019-05-26T13:12:16.275Z,53.2
2019-05-26T13:13:16.553Z,52.8
2019-05-26T13:14:16.823Z,55.8
2019-05-26T13:15:17.090Z,53.0
2019-05-26T13:16:16.351Z,53.0
2019-05-26T13:17:16.617Z,53.2
2019-05-26T13:18:16.883Z,52.6